CheckWX is a tool to help pilots better visualize weather data.  It is not intended as a substitute for an official pre-flight weather briefing.

06:46:03 UTC

9D7 METAR
Cando Municipal Airport
Cando, North Dakota, USA
Current

11 mins ago

K9D7 210635Z AUTO 13005KT 10SM BKN023 06/M02 A3011 RMK AO2
Observed
May-21 @ 06:35 UTC
Wind
  • 130° at 5 KTS
Visibility
10 SM
Flight Rules
MVFR
Cloud Levels
  • Broken at 2,300' AGL
Temperature
C / 43°F
Dewpoint
-2°C / 28°F
Humidity
57%
Altimeter
30.11" Hg
Pressure
1019.62 hPa
Previous

31 mins ago

K9D7 210615Z AUTO 13006KT 10SM OVC022 05/M03 A3011 RMK AO2
Observed
May-21 @ 06:15 UTC
Wind
  • 130° at 6 KTS
Visibility
10 SM
Flight Rules
MVFR
Cloud Levels
  • Overcast at 2,200' AGL
Temperature
C / 41°F
Dewpoint
-3°C / 27°F
Humidity
57%
Altimeter
30.11" Hg
Pressure
1019.62 hPa
Previous

51 mins ago

K9D7 210555Z AUTO 14006KT 10SM BKN023 06/M03 A3011 RMK AO2
Observed
May-21 @ 05:55 UTC
Wind
  • 140° at 6 KTS
Visibility
10 SM
Flight Rules
MVFR
Cloud Levels
  • Broken at 2,300' AGL
Temperature
C / 43°F
Dewpoint
-3°C / 27°F
Humidity
53%
Altimeter
30.11" Hg
Pressure
1019.62 hPa